Time;durP1;ratioP1;P1;durP2;ratioP2;P2;SDS_P1;SDS_P2;PMS_P1;PMS_P2;Temp;Humidity;BMP_temperature;BMP_pressure;BME280_temperature;BME280_humidity;BME280_pressure;Samples;Min_cycle;Max_cycle;Signal;HPM_P1;HPM_P2
2023/05/04 00:01:57;;;;;;;3.17;2.83;;;16.30;58.10;;;;;;5052810;28;20936;-71
2023/05/04 00:04:44;;;;;;;4.40;2.90;;;16.30;58.10;;;;;;5053120;28;20480;-71
2023/05/04 00:07:11;;;;;;;3.47;2.67;;;16.20;58.10;;;;;;5045942;28;20502;-71
2023/05/04 00:09:38;;;;;;;4.50;2.90;;;16.20;58.10;;;;;;5041268;28;20451;-71
2023/05/04 00:12:06;;;;;;;3.13;2.83;;;16.10;57.90;;;;;;5052660;28;20460;-71
2023/05/04 00:14:33;;;;;;;4.70;2.63;;;16.10;58.10;;;;;;5052969;28;20444;-70
2023/05/04 00:17:00;;;;;;;3.40;2.97;;;16.10;58.30;;;;;;5053247;28;20478;-71
2023/05/04 00:19:27;;;;;;;3.63;3.17;;;16.10;58.50;;;;;;5053557;28;20951;-71
2023/05/04 00:21:54;;;;;;;3.37;3.07;;;16.10;58.40;;;;;;5053424;28;20471;-72
2023/05/04 00:24:20;;;;;;;4.23;3.10;;;16.10;58.40;;;;;;5059065;28;20481;-72
2023/05/04 00:26:47;;;;;;;3.53;3.23;;;16.00;58.30;;;;;;5065914;28;20808;-71
2023/05/04 00:29:15;;;;;;;3.57;3.10;;;16.00;58.40;;;;;;5066355;28;20440;-73
2023/05/04 00:31:42;;;;;;;6.40;3.27;;;16.00;58.40;;;;;;5063131;28;20547;-71
2023/05/04 00:34:09;;;;;;;3.60;3.03;;;16.00;58.40;;;;;;5061143;28;20530;-72
2023/05/04 00:36:36;;;;;;;5.70;3.40;;;15.90;58.30;;;;;;5072594;28;20493;-72
2023/05/04 00:39:03;;;;;;;3.87;3.30;;;15.90;58.40;;;;;;5062774;28;20479;-72
2023/05/04 00:41:30;;;;;;;3.40;3.10;;;15.90;58.60;;;;;;5070956;28;20462;-72
2023/05/04 00:43:58;;;;;;;4.90;3.20;;;15.80;58.60;;;;;;5073170;28;20450;-71
2023/05/04 00:46:27;;;;;;;4.67;3.37;;;15.80;58.40;;;;;;5071915;28;20461;-71
2023/05/04 00:48:54;;;;;;;5.20;3.47;;;15.80;58.50;;;;;;5059606;28;20444;-72
2023/05/04 00:51:23;;;;;;;3.40;3.10;;;15.70;58.50;;;;;;5056688;28;20443;-71
2023/05/04 00:53:50;;;;;;;3.20;2.80;;;15.80;58.80;;;;;;5067930;28;20472;-72
2023/05/04 00:56:21;;;;;;;4.93;3.13;;;15.70;58.90;;;;;;5042353;28;20537;-71
2023/05/04 00:58:47;;;;;;;3.77;2.90;;;15.70;59.00;;;;;;5040405;28;20500;-71
2023/05/04 01:01:14;;;;;;;3.30;3.00;;;15.60;59.20;;;;;;5053463;28;20448;-72
2023/05/04 01:03:43;;;;;;;3.50;2.80;;;15.60;59.40;;;;;;5052764;28;20488;-72
2023/05/04 01:06:19;;;;;;;4.67;3.23;;;15.60;59.40;;;;;;5054276;28;20461;-72
2023/05/04 01:08:51;;;;;;;4.43;3.10;;;15.50;59.50;;;;;;5053347;28;20535;-72
2023/05/04 01:11:22;;;;;;;4.30;3.40;;;15.50;59.40;;;;;;5053248;28;20444;-70
2023/05/04 01:13:51;;;;;;;3.57;3.00;;;15.50;59.60;;;;;;5072982;28;20447;-72
2023/05/04 01:16:18;;;;;;;4.43;3.27;;;15.50;59.70;;;;;;5073309;28;20467;-71
2023/05/04 01:18:46;;;;;;;4.17;3.20;;;15.40;59.80;;;;;;5071383;28;20996;-72
2023/05/04 01:21:13;;;;;;;3.57;3.00;;;15.40;60.60;;;;;;5073170;28;20967;-71
2023/05/04 01:23:42;;;;;;;4.00;3.00;;;15.30;59.90;;;;;;5071936;28;20488;-71
2023/05/04 01:26:16;;;;;;;4.10;3.07;;;15.30;59.90;;;;;;5052409;28;20480;-72
2023/05/04 01:28:49;;;;;;;5.70;2.97;;;15.30;59.80;;;;;;5059274;28;20453;-71
2023/05/04 01:31:20;;;;;;;3.97;3.60;;;15.20;59.70;;;;;;5050950;28;20948;-71
2023/05/04 01:33:48;;;;;;;3.70;3.27;;;15.20;59.80;;;;;;5058246;28;20966;-72
2023/05/04 01:36:15;;;;;;;7.53;3.90;;;15.10;59.90;;;;;;5068692;28;20447;-71
2023/05/04 01:38:43;;;;;;;3.93;3.60;;;15.20;61.00;;;;;;5072477;28;20901;-72
2023/05/04 01:41:10;;;;;;;4.53;3.07;;;15.10;60.90;;;;;;5069374;28;20450;-72
2023/05/04 01:43:37;;;;;;;5.43;3.83;;;15.10;60.10;;;;;;5071942;28;21058;-71
2023/05/04 01:46:07;;;;;;;6.13;3.73;;;15.10;59.80;;;;;;5062481;28;20444;-72
2023/05/04 01:48:34;;;;;;;4.53;3.20;;;15.10;59.80;;;;;;5052194;28;20473;-72
2023/05/04 01:51:00;;;;;;;3.63;3.30;;;15.10;59.70;;;;;;5057320;28;20458;-71
2023/05/04 01:53:27;;;;;;;3.77;3.37;;;15.10;60.30;;;;;;5056475;28;20452;-71
2023/05/04 01:56:11;;;;;;;5.53;3.57;;;15.10;59.40;;;;;;5057000;28;20808;-71
2023/05/04 01:58:38;;;;;;;4.17;3.30;;;15.10;59.60;;;;;;5056714;28;20488;-72
2023/05/04 02:01:05;;;;;;;5.80;4.23;;;15.10;59.50;;;;;;5068251;28;20479;-71
2023/05/04 02:03:32;;;;;;;4.40;3.53;;;15.10;59.50;;;;;;5068101;28;20454;-72
2023/05/04 02:05:59;;;;;;;4.10;3.53;;;15.10;59.60;;;;;;5076575;28;20565;-71
2023/05/04 02:08:26;;;;;;;3.70;3.30;;;15.10;59.60;;;;;;5058617;28;20458;-71
2023/05/04 02:10:53;;;;;;;4.73;3.13;;;15.00;59.60;;;;;;5057220;28;20479;-72
2023/05/04 02:13:21;;;;;;;3.80;3.40;;;15.00;59.60;;;;;;5055331;28;20452;-72
2023/05/04 02:16:00;;;;;;;4.03;3.20;;;15.00;59.70;;;;;;5056630;28;20444;-71
2023/05/04 02:18:27;;;;;;;4.87;3.47;;;15.00;60.00;;;;;;5056203;28;20484;-71
2023/05/04 02:20:54;;;;;;;4.27;3.60;;;14.90;59.90;;;;;;5065907;28;20469;-71
2023/05/04 02:23:21;;;;;;;4.70;3.73;;;14.90;60.70;;;;;;5060733;28;20562;-72
2023/05/04 02:25:48;;;;;;;3.80;3.37;;;14.80;60.90;;;;;;5056255;28;20449;-71
2023/05/04 02:28:15;;;;;;;4.23;3.40;;;14.80;60.60;;;;;;5066147;28;20474;-72
2023/05/04 02:30:43;;;;;;;5.30;3.60;;;14.80;60.80;;;;;;5065158;28;20447;-71
2023/05/04 02:33:10;;;;;;;4.63;3.40;;;14.80;60.80;;;;;;5073999;28;20538;-72
2023/05/04 02:35:37;;;;;;;3.90;3.60;;;14.80;61.00;;;;;;5072813;28;20966;-72
2023/05/04 02:38:04;;;;;;;3.70;3.37;;;14.70;60.90;;;;;;5075967;28;20451;-72
2023/05/04 02:40:31;;;;;;;3.53;3.23;;;14.70;61.20;;;;;;5074040;28;20458;-72
2023/05/04 02:42:57;;;;;;;5.13;3.60;;;14.60;61.40;;;;;;5061663;28;20458;-71
2023/05/04 02:45:24;;;;;;;3.93;3.50;;;14.60;61.60;;;;;;5055723;28;20580;-72
2023/05/04 02:47:55;;;;;;;5.23;3.30;;;14.60;61.60;;;;;;5054284;28;20444;-72
2023/05/04 02:50:21;;;;;;;4.73;3.47;;;14.50;61.60;;;;;;5068881;28;20502;-72
2023/05/04 02:52:48;;;;;;;3.77;3.37;;;14.50;61.60;;;;;;5061774;28;20455;-72
2023/05/04 02:55:16;;;;;;;4.03;3.47;;;14.40;61.40;;;;;;5070810;28;20792;-72
2023/05/04 02:57:43;;;;;;;3.50;3.20;;;14.40;61.70;;;;;;5075660;28;20462;-71
2023/05/04 03:00:11;;;;;;;3.93;3.40;;;14.30;61.70;;;;;;5075142;28;20489;-71
2023/05/04 03:02:38;;;;;;;5.70;3.37;;;14.30;61.90;;;;;;5074648;28;20520;-72
2023/05/04 03:05:06;;;;;;;5.50;3.20;;;14.20;61.90;;;;;;5073710;28;20803;-72
2023/05/04 03:07:33;;;;;;;3.93;3.30;;;14.20;62.10;;;;;;5054957;28;20571;-72
2023/05/04 03:10:00;;;;;;;6.00;3.70;;;14.20;62.20;;;;;;5055258;28;20451;-72
2023/05/04 03:12:27;;;;;;;5.27;3.50;;;14.20;62.30;;;;;;5055067;28;20476;-72
2023/05/04 03:14:54;;;;;;;5.07;3.60;;;14.10;62.30;;;;;;5055350;28;20448;-72
2023/05/04 03:17:21;;;;;;;4.93;3.50;;;14.10;62.50;;;;;;5059758;28;20451;-71
2023/05/04 03:19:48;;;;;;;4.60;3.80;;;14.10;62.60;;;;;;5064539;28;20484;-71
2023/05/04 03:22:16;;;;;;;8.63;3.60;;;14.10;62.50;;;;;;5054538;28;20466;-72
2023/05/04 03:24:43;;;;;;;4.13;3.80;;;14.10;62.70;;;;;;5071199;28;20574;-72
2023/05/04 03:27:09;;;;;;;4.13;3.73;;;14.10;62.70;;;;;;5061153;28;20457;-72
2023/05/04 03:29:36;;;;;;;4.83;4.17;;;14.10;62.70;;;;;;5064313;28;20471;-71
2023/05/04 03:32:03;;;;;;;5.20;3.60;;;14.10;62.60;;;;;;5073477;28;20451;-72
2023/05/04 03:34:30;;;;;;;4.97;3.73;;;14.00;62.70;;;;;;5061267;28;20456;-72
2023/05/04 03:36:57;;;;;;;5.50;3.70;;;14.10;62.80;;;;;;5054752;28;20459;-72
2023/05/04 03:39:26;;;;;;;5.93;4.23;;;14.00;62.80;;;;;;5054472;28;20476;-72
2023/05/04 03:41:53;;;;;;;4.47;3.73;;;14.00;62.70;;;;;;5054257;28;20476;-72
2023/05/04 03:44:20;;;;;;;5.60;4.17;;;14.00;62.70;;;;;;5065669;28;20452;-72
2023/05/04 03:46:46;;;;;;;4.10;3.70;;;13.90;62.70;;;;;;5059672;28;20484;-72
2023/05/04 03:49:14;;;;;;;6.53;3.83;;;13.90;62.70;;;;;;5019055;28;20451;-72
2023/05/04 03:51:41;;;;;;;4.23;3.83;;;13.90;62.70;;;;;;5064310;28;20447;-71
2023/05/04 03:54:08;;;;;;;4.33;3.70;;;13.90;62.70;;;;;;5065960;28;20456;-72
2023/05/04 03:56:36;;;;;;;3.90;3.50;;;13.90;62.80;;;;;;5063763;28;20450;-71
2023/05/04 03:59:03;;;;;;;4.57;4.17;;;13.90;63.00;;;;;;5053992;28;20498;-71
2023/05/04 04:01:29;;;;;;;6.40;4.50;;;14.00;63.00;;;;;;5064670;28;20538;-71
2023/05/04 04:03:56;;;;;;;4.67;4.00;;;14.10;62.90;;;;;;5059705;28;20476;-71
2023/05/04 04:06:23;;;;;;;4.63;4.20;;;14.10;62.70;;;;;;5053335;28;20448;-71
2023/05/04 04:08:50;;;;;;;4.57;4.17;;;14.20;62.40;;;;;;5046702;28;20505;-72
2023/05/04 04:11:17;;;;;;;3.97;3.67;;;14.20;62.20;;;;;;5061994;28;20462;-71
2023/05/04 04:13:45;;;;;;;6.20;4.70;;;14.30;62.10;;;;;;5073150;28;20950;-72
2023/05/04 04:16:12;;;;;;;6.13;4.30;;;14.30;62.00;;;;;;5059305;28;20449;-72
2023/05/04 04:18:39;;;;;;;4.57;4.10;;;14.30;61.80;;;;;;5053646;28;20456;-72
2023/05/04 04:21:06;;;;;;;4.97;4.53;;;14.40;61.70;;;;;;5057683;28;21013;-72
2023/05/04 04:23:33;;;;;;;4.70;4.27;;;14.40;61.40;;;;;;5072036;28;20554;-72
2023/05/04 04:26:00;;;;;;;5.53;4.30;;;14.50;61.40;;;;;;5056580;28;20480;-71
2023/05/04 04:28:27;;;;;;;6.73;4.57;;;14.50;61.50;;;;;;5072608;28;20455;-72
2023/05/04 04:30:56;;;;;;;5.17;4.10;;;14.60;61.60;;;;;;5061152;28;20444;-72
2023/05/04 04:33:22;;;;;;;6.43;4.40;;;14.60;61.50;;;;;;5053192;28;20830;-70
2023/05/04 04:35:49;;;;;;;7.37;5.07;;;14.60;61.30;;;;;;5053778;28;20452;-72
2023/05/04 04:38:16;;;;;;;5.20;4.53;;;14.60;61.10;;;;;;5058977;28;20447;-72
2023/05/04 04:40:43;;;;;;;6.00;4.83;;;14.70;61.30;;;;;;5066504;28;20479;-72
2023/05/04 04:43:10;;;;;;;5.93;4.60;;;14.70;61.10;;;;;;5059482;28;20482;-72
2023/05/04 04:45:38;;;;;;;6.27;4.60;;;14.70;61.20;;;;;;5053427;28;20448;-72
2023/05/04 04:48:06;;;;;;;7.57;4.70;;;14.70;61.30;;;;;;5053124;28;20887;-72
2023/05/04 04:50:33;;;;;;;6.47;4.40;;;14.80;61.60;;;;;;5062307;28;20450;-72
2023/05/04 04:53:00;;;;;;;5.40;4.57;;;14.80;61.40;;;;;;5052746;28;20458;-73
2023/05/04 04:55:27;;;;;;;6.93;4.60;;;14.80;61.30;;;;;;5071942;28;20542;-72
2023/05/04 04:57:54;;;;;;;5.57;4.97;;;14.80;61.30;;;;;;5073013;28;20469;-72
2023/05/04 05:00:22;;;;;;;5.43;4.43;;;14.80;61.20;;;;;;5072726;28;20831;-72
2023/05/04 05:02:49;;;;;;;6.87;4.70;;;14.90;61.30;;;;;;5066942;28;20474;-72
2023/05/04 05:05:18;;;;;;;5.80;4.47;;;14.90;61.20;;;;;;5073149;28;20550;-72
2023/05/04 05:07:45;;;;;;;6.57;5.07;;;14.90;61.20;;;;;;5057650;28;20457;-72
2023/05/04 05:10:12;;;;;;;5.63;4.77;;;15.00;61.10;;;;;;5056664;28;20469;-72
2023/05/04 05:12:38;;;;;;;5.37;4.53;;;15.00;61.30;;;;;;5061466;28;20950;-73
2023/05/04 05:15:06;;;;;;;6.37;4.93;;;15.00;61.00;;;;;;5072827;28;20957;-73
2023/05/04 05:17:34;;;;;;;5.50;4.80;;;15.00;61.10;;;;;;5057779;28;20536;-72
2023/05/04 05:20:01;;;;;;;6.63;5.27;;;15.10;61.20;;;;;;5052547;28;20480;-72
2023/05/04 05:22:29;;;;;;;8.63;5.17;;;15.10;61.20;;;;;;5052587;28;20474;-72
2023/05/04 05:24:56;;;;;;;6.73;4.90;;;15.20;61.20;;;;;;5054588;28;20448;-72
2023/05/04 05:27:23;;;;;;;6.13;5.33;;;15.20;61.30;;;;;;5051860;28;20494;-72
2023/05/04 05:29:49;;;;;;;8.23;4.97;;;15.20;61.20;;;;;;5052428;28;20448;-71
2023/05/04 05:32:16;;;;;;;5.77;4.70;;;15.30;61.30;;;;;;5059526;28;20474;-72
2023/05/04 05:34:43;;;;;;;5.80;4.40;;;15.30;61.20;;;;;;5053548;28;20811;-72
2023/05/04 05:37:10;;;;;;;8.60;5.50;;;15.40;61.50;;;;;;5058533;28;20459;-73
2023/05/04 05:39:38;;;;;;;6.23;5.23;;;15.40;61.30;;;;;;5055054;28;20570;-72
2023/05/04 05:42:05;;;;;;;6.83;5.40;;;15.50;61.60;;;;;;5071079;28;20806;-72
2023/05/04 05:44:36;;;;;;;7.10;5.60;;;15.50;61.40;;;;;;5071998;28;20451;-72
2023/05/04 05:47:03;;;;;;;7.23;4.90;;;15.50;61.40;;;;;;5069907;28;20458;-71
2023/05/04 05:49:30;;;;;;;6.70;5.43;;;15.60;61.40;;;;;;5053340;28;20476;-72
2023/05/04 05:51:57;;;;;;;6.03;5.03;;;15.70;61.70;;;;;;5055141;28;20463;-73
2023/05/04 05:54:25;;;;;;;6.37;4.97;;;15.70;61.80;;;;;;5046544;28;20553;-72
2023/05/04 05:56:53;;;;;;;7.20;5.73;;;15.70;61.70;;;;;;5051915;28;20460;-72
2023/05/04 05:59:20;;;;;;;7.87;5.70;;;15.80;61.40;;;;;;5051182;28;20978;-73
2023/05/04 06:01:47;;;;;;;6.10;5.40;;;15.80;61.20;;;;;;5051374;28;20563;-72
2023/05/04 06:04:13;;;;;;;7.43;5.43;;;15.90;61.30;;;;;;5051788;28;20555;-73
2023/05/04 06:06:40;;;;;;;6.50;5.73;;;16.00;61.10;;;;;;5053740;28;20545;-72
2023/05/04 06:09:08;;;;;;;8.83;6.10;;;16.00;61.30;;;;;;5052268;28;20467;-72
2023/05/04 06:11:35;;;;;;;6.50;5.40;;;16.00;61.00;;;;;;5070646;28;20823;-73
2023/05/04 06:14:03;;;;;;;7.03;6.23;;;16.10;61.00;;;;;;5071794;28;20546;-72
2023/05/04 06:16:30;;;;;;;6.97;5.80;;;16.20;60.70;;;;;;5071575;28;20456;-72
2023/05/04 06:18:56;;;;;;;7.80;5.93;;;16.20;60.60;;;;;;5069535;28;20480;-72
2023/05/04 06:21:23;;;;;;;7.20;5.20;;;16.30;60.70;;;;;;5071782;28;20513;-73
2023/05/04 06:23:50;;;;;;;6.53;5.43;;;16.40;61.00;;;;;;5061548;28;20480;-72
2023/05/04 06:26:18;;;;;;;6.63;5.90;;;16.40;61.10;;;;;;5052652;28;20535;-72
2023/05/04 06:28:45;;;;;;;7.80;5.70;;;16.50;61.00;;;;;;5059557;28;20456;-72
2023/05/04 06:31:14;;;;;;;6.23;5.60;;;16.60;60.60;;;;;;5051945;28;20440;-73
2023/05/04 06:33:41;;;;;;;8.30;5.50;;;16.70;60.70;;;;;;5063432;28;20451;-72
2023/05/04 06:36:08;;;;;;;7.20;5.93;;;16.70;60.40;;;;;;5052953;28;20472;-72
2023/05/04 06:38:35;;;;;;;5.53;5.03;;;16.80;60.20;;;;;;5054315;28;20452;-72
2023/05/04 06:41:05;;;;;;;6.23;5.47;;;16.80;60.40;;;;;;5054947;28;20576;-73
2023/05/04 06:43:32;;;;;;;6.63;5.47;;;16.90;60.70;;;;;;5055214;28;20450;-72
2023/05/04 06:46:01;;;;;;;6.10;5.50;;;17.00;61.00;;;;;;5055045;28;20452;-72
2023/05/04 06:48:30;;;;;;;7.30;5.93;;;17.10;60.60;;;;;;5054929;28;20498;-73
2023/05/04 06:51:09;;;;;;;6.10;5.50;;;17.10;60.50;;;;;;5054406;28;20448;-72
2023/05/04 06:53:36;;;;;;;6.40;5.63;;;17.20;60.40;;;;;;5054192;28;20452;-72
2023/05/04 06:56:02;;;;;;;7.37;5.90;;;17.30;60.00;;;;;;5053990;28;20471;-72
2023/05/04 06:58:29;;;;;;;7.60;6.07;;;17.40;60.60;;;;;;5055525;28;20454;-73
2023/05/04 07:00:56;;;;;;;6.20;5.57;;;17.50;60.40;;;;;;5057958;28;20513;-72
2023/05/04 07:03:23;;;;;;;6.77;6.07;;;17.50;59.80;;;;;;5057946;28;20474;-72
2023/05/04 07:05:51;;;;;;;8.33;6.07;;;17.60;60.20;;;;;;5061681;28;20474;-73
2023/05/04 07:08:18;;;;;;;6.20;5.50;;;17.70;60.20;;;;;;5042399;28;20496;-73
2023/05/04 07:10:45;;;;;;;7.07;5.20;;;17.70;59.80;;;;;;5034134;28;20478;-73
2023/05/04 07:13:13;;;;;;;8.97;5.80;;;17.80;59.80;;;;;;5034389;28;20453;-73
2023/05/04 07:15:40;;;;;;;8.80;5.90;;;17.90;59.90;;;;;;5034879;28;20244;-72
2023/05/04 07:18:07;;;;;;;8.63;6.23;;;18.00;60.00;;;;;;5049188;28;20951;-73
2023/05/04 07:20:34;;;;;;;8.90;5.40;;;18.10;60.00;;;;;;5054282;28;21040;-72
2023/05/04 07:23:02;;;;;;;9.03;5.33;;;18.20;59.70;;;;;;5052992;28;20984;-72
2023/05/04 07:25:29;;;;;;;6.93;6.00;;;18.30;59.40;;;;;;5054188;28;20445;-72
2023/05/04 07:27:57;;;;;;;7.87;6.33;;;18.40;59.40;;;;;;5054316;28;20459;-72
2023/05/04 07:30:25;;;;;;;6.27;5.73;;;18.50;59.20;;;;;;5054384;28;20448;-71
2023/05/04 07:32:52;;;;;;;9.30;5.90;;;18.60;59.70;;;;;;5054088;28;20448;-71
2023/05/04 07:35:19;;;;;;;7.17;6.03;;;18.60;59.60;;;;;;5054257;28;20255;-72
2023/05/04 07:37:46;;;;;;;7.40;5.50;;;18.70;59.10;;;;;;5055284;28;20456;-72
2023/05/04 07:40:14;;;;;;;6.07;5.47;;;18.80;59.20;;;;;;5053779;28;20882;-72
2023/05/04 07:42:41;;;;;;;6.90;5.53;;;18.90;59.30;;;;;;5054311;28;20217;-72
2023/05/04 07:45:09;;;;;;;7.73;5.30;;;19.00;59.10;;;;;;5053985;28;20232;-71
2023/05/04 07:47:37;;;;;;;5.53;5.00;;;19.10;59.50;;;;;;5053430;28;20202;-72
2023/05/04 07:50:04;;;;;;;5.70;5.10;;;19.20;59.60;;;;;;5053324;28;20214;-73
2023/05/04 07:52:31;;;;;;;7.13;6.07;;;19.30;59.00;;;;;;5053584;28;20229;-72
2023/05/04 07:54:58;;;;;;;7.40;5.80;;;19.40;58.80;;;;;;5053597;28;20296;-73
2023/05/04 07:57:26;;;;;;;6.03;5.40;;;19.40;58.60;;;;;;5052873;28;20237;-72
2023/05/04 07:59:54;;;;;;;6.63;5.77;;;19.50;58.70;;;;;;5052893;28;20316;-72
2023/05/04 08:02:21;;;;;;;7.53;5.27;;;19.60;58.40;;;;;;5053448;28;20331;-72
2023/05/04 08:04:48;;;;;;;6.00;5.37;;;19.70;58.80;;;;;;5053309;28;20662;-72
2023/05/04 08:07:15;;;;;;;5.40;4.90;;;19.80;58.40;;;;;;5058823;28;20560;-73
2023/05/04 08:09:42;;;;;;;6.53;5.53;;;19.90;58.70;;;;;;5073402;28;20205;-72
2023/05/04 08:12:11;;;;;;;6.37;5.60;;;20.00;58.20;;;;;;5073509;28;20239;-73
2023/05/04 08:14:39;;;;;;;7.30;6.00;;;20.20;58.20;;;;;;5073298;28;20611;-73
2023/05/04 08:17:06;;;;;;;9.47;6.20;;;20.30;57.50;;;;;;5072896;28;20304;-73
2023/05/04 08:19:33;;;;;;;7.17;5.17;;;20.30;57.80;;;;;;5073293;28;20240;-73
2023/05/04 08:22:00;;;;;;;7.20;5.20;;;20.40;58.10;;;;;;5073209;28;20256;-72
2023/05/04 08:24:27;;;;;;;6.93;5.80;;;20.50;58.50;;;;;;5072830;28;20231;-72
2023/05/04 08:26:55;;;;;;;6.70;5.97;;;20.70;57.30;;;;;;5073012;28;20201;-73
2023/05/04 08:29:22;;;;;;;6.50;5.90;;;20.70;57.00;;;;;;5073215;28;20209;-72
2023/05/04 08:31:50;;;;;;;7.53;5.73;;;20.80;57.40;;;;;;5072834;28;20221;-72
2023/05/04 08:34:17;;;;;;;6.07;5.40;;;20.80;57.30;;;;;;5073107;28;20213;-72
2023/05/04 08:36:45;;;;;;;5.57;5.07;;;20.90;57.20;;;;;;5070454;28;20284;-73
2023/05/04 08:39:12;;;;;;;7.73;5.03;;;21.10;58.20;;;;;;5052641;28;20268;-72
2023/05/04 08:41:40;;;;;;;7.50;4.80;;;21.20;57.60;;;;;;5062173;28;20250;-72
2023/05/04 08:44:09;;;;;;;5.83;5.33;;;21.30;57.70;;;;;;5054692;28;20648;-72
2023/05/04 08:46:37;;;;;;;7.37;5.43;;;21.40;56.40;;;;;;5052393;28;20293;-73
2023/05/04 08:49:05;;;;;;;5.83;5.20;;;21.50;56.60;;;;;;5052886;28;20610;-72
2023/05/04 08:51:36;;;;;;;7.10;4.70;;;21.60;56.80;;;;;;5052581;28;20221;-73
2023/05/04 08:54:06;;;;;;;5.97;5.47;;;21.70;56.90;;;;;;5052561;28;20213;-72
2023/05/04 08:56:34;;;;;;;5.83;5.03;;;21.80;55.80;;;;;;5052626;28;20229;-72
2023/05/04 08:59:02;;;;;;;6.93;5.47;;;21.80;56.20;;;;;;5052427;28;20233;-72
2023/05/04 09:01:31;;;;;;;6.80;5.33;;;22.00;55.90;;;;;;5051529;28;20363;-72
2023/05/04 09:04:01;;;;;;;6.17;5.40;;;22.10;55.80;;;;;;5052237;28;20233;-72
2023/05/04 09:06:29;;;;;;;5.27;4.77;;;22.20;55.80;;;;;;5052297;28;20209;-72
2023/05/04 09:08:57;;;;;;;5.70;4.97;;;22.30;55.80;;;;;;5032490;28;20207;-72
2023/05/04 09:11:23;;;;;;;6.37;5.53;;;22.40;55.90;;;;;;5032655;28;20202;-73
2023/05/04 09:13:50;;;;;;;5.90;5.40;;;22.50;54.80;;;;;;5031828;28;20302;-72
2023/05/04 09:16:18;;;;;;;5.90;5.23;;;22.60;54.80;;;;;;5032488;28;20257;-73
2023/05/04 09:18:46;;;;;;;5.63;4.90;;;22.60;55.00;;;;;;5032207;28;20210;-73
2023/05/04 09:21:13;;;;;;;6.40;5.30;;;22.80;55.40;;;;;;5052166;28;20221;-73
2023/05/04 09:23:48;;;;;;;7.83;5.47;;;22.90;55.70;;;;;;5051893;28;20220;-73
2023/05/04 09:26:15;;;;;;;6.93;5.03;;;23.00;54.60;;;;;;5052175;28;20216;-72
2023/05/04 09:28:42;;;;;;;5.23;4.60;;;23.20;54.40;;;;;;5051879;28;20671;-72
2023/05/04 09:31:10;;;;;;;6.50;5.00;;;23.20;53.40;;;;;;5052363;28;20229;-72
2023/05/04 09:33:37;;;;;;;6.40;4.80;;;23.30;53.80;;;;;;5052077;28;20247;-72
2023/05/04 09:36:14;;;;;;;5.57;5.07;;;23.40;53.00;;;;;;5051941;28;20599;-72
2023/05/04 09:38:41;;;;;;;5.67;4.93;;;23.50;52.90;;;;;;5051718;28;20198;-72
2023/05/04 09:41:10;;;;;;;6.37;5.60;;;23.60;53.50;;;;;;5052185;28;20578;-72
2023/05/04 09:43:38;;;;;;;4.93;4.50;;;23.70;52.60;;;;;;5051677;28;20210;-72
2023/05/04 09:46:05;;;;;;;5.67;5.00;;;23.80;52.70;;;;;;5050843;28;20213;-72
2023/05/04 09:48:32;;;;;;;5.83;5.33;;;23.80;52.60;;;;;;5051490;28;20271;-72
2023/05/04 09:51:01;;;;;;;6.00;4.93;;;24.00;52.40;;;;;;5069228;28;20254;-72
2023/05/04 09:53:30;;;;;;;5.97;5.40;;;24.10;52.50;;;;;;5071718;28;20215;-72
2023/05/04 09:58:58;;;;;;;5.33;4.60;;;24.20;52.20;;;;;;5109792;27;20646;-73
2023/05/04 10:01:28;;;;;;;6.20;4.87;;;24.40;51.60;;;;;;5110036;28;20317;-72
2023/05/04 10:03:55;;;;;;;5.57;4.53;;;24.40;50.80;;;;;;5109520;28;20207;-72
2023/05/04 10:06:23;;;;;;;5.60;4.60;;;24.50;50.90;;;;;;5109531;28;20203;-71
2023/05/04 10:08:50;;;;;;;8.33;5.30;;;24.60;50.80;;;;;;5089657;28;20618;-73
2023/05/04 10:11:33;;;;;;;6.47;4.10;;;24.70;50.10;;;;;;5087290;28;20204;-73
2023/05/04 10:14:01;;;;;;;4.27;3.97;;;24.80;50.20;;;;;;5088888;28;20770;-73
2023/05/04 10:16:36;;;;;;;5.90;4.53;;;24.90;50.70;;;;;;5089360;28;20325;-73
2023/05/04 10:19:27;;;;;;;4.97;4.50;;;25.00;49.30;;;;;;5108778;28;20199;-73
2023/05/04 10:22:07;;;;;;;6.77;4.67;;;25.10;49.80;;;;;;5091129;28;20582;-72
2023/05/04 10:25:00;;;;;;;5.47;3.93;;;25.20;49.20;;;;;;5089133;28;20222;-72
2023/05/04 10:27:43;;;;;;;6.00;4.53;;;25.30;50.10;;;;;;5088912;28;20695;-72
2023/05/04 10:30:14;;;;;;;5.07;4.60;;;25.50;48.00;;;;;;5089144;28;20211;-72
2023/05/04 10:32:42;;;;;;;5.47;4.17;;;25.60;49.20;;;;;;5089082;28;20315;-73
2023/05/04 10:35:10;;;;;;;5.10;4.60;;;25.70;49.30;;;;;;5088624;28;20204;-72
2023/05/04 10:37:38;;;;;;;4.40;4.00;;;25.70;47.10;;;;;;5087847;28;20216;-72
2023/05/04 10:40:06;;;;;;;4.90;3.80;;;25.80;47.40;;;;;;5088751;28;20228;-72
2023/05/04 10:42:41;;;;;;;4.13;3.73;;;25.90;47.90;;;;;;5088811;28;20633;-72
2023/05/04 10:45:09;;;;;;;4.40;4.00;;;26.00;47.70;;;;;;5088683;28;20207;-72
2023/05/04 10:47:39;;;;;;;4.43;4.03;;;26.00;47.30;;;;;;5088643;28;20197;-72
2023/05/04 10:50:08;;;;;;;3.73;3.43;;;26.10;46.20;;;;;;5088800;28;20211;-73
2023/05/04 10:52:46;;;;;;;4.37;3.70;;;26.20;46.60;;;;;;5088612;28;20258;-73
2023/05/04 10:55:14;;;;;;;4.27;3.87;;;26.30;47.10;;;;;;5088397;28;20204;-73
2023/05/04 10:57:49;;;;;;;4.00;3.57;;;26.40;46.50;;;;;;5088140;28;20307;-73
2023/05/04 11:00:17;;;;;;;4.20;3.80;;;26.40;45.50;;;;;;5088511;28;20821;-72
2023/05/04 11:02:46;;;;;;;4.23;3.93;;;26.50;46.80;;;;;;5088265;28;20222;-72
2023/05/04 11:05:17;;;;;;;4.00;3.60;;;26.50;46.40;;;;;;5088308;28;20233;-73
2023/05/04 11:07:44;;;;;;;4.37;3.70;;;26.60;46.50;;;;;;5095473;28;20206;-72
2023/05/04 11:10:22;;;;;;;3.90;3.50;;;26.70;46.40;;;;;;5094232;28;20669;-73
2023/05/04 11:12:48;;;;;;;3.90;3.60;;;26.80;45.60;;;;;;5095103;28;20208;-72
2023/05/04 11:15:15;;;;;;;5.40;3.43;;;26.80;45.80;;;;;;5094730;28;20558;-72
2023/05/04 11:17:47;;;;;;;3.73;3.00;;;27.00;46.30;;;;;;5094390;28;20221;-73
2023/05/04 11:20:21;;;;;;;5.87;3.60;;;27.00;45.80;;;;;;5095033;28;20205;-73
2023/05/04 11:22:48;;;;;;;4.40;3.23;;;27.00;43.40;;;;;;5094823;28;20296;-72
2023/05/04 11:25:16;;;;;;;4.77;3.40;;;26.90;45.10;;;;;;5093239;28;20228;-71
2023/05/04 11:27:43;;;;;;;3.93;3.60;;;27.00;44.30;;;;;;5094545;28;20194;-71
2023/05/04 11:30:11;;;;;;;3.87;3.30;;;27.00;43.80;;;;;;5094910;28;20241;-71
2023/05/04 11:32:41;;;;;;;3.60;3.00;;;27.10;43.40;;;;;;5094688;28;20555;-72
2023/05/04 11:35:15;;;;;;;3.40;3.10;;;27.20;44.40;;;;;;5094574;28;20746;-71
2023/05/04 11:37:43;;;;;;;4.17;3.27;;;27.20;44.00;;;;;;5094506;28;20235;-71
2023/05/04 11:40:12;;;;;;;3.53;3.00;;;27.30;43.30;;;;;;5094167;28;20687;-72
2023/05/04 11:42:40;;;;;;;3.60;3.30;;;27.40;43.30;;;;;;5094600;28;20214;-73
2023/05/04 11:45:13;;;;;;;4.60;3.00;;;27.40;43.30;;;;;;5094152;28;20209;-72
2023/05/04 11:47:41;;;;;;;5.37;3.50;;;27.50;43.60;;;;;;5093874;28;20241;-73
2023/05/04 11:50:13;;;;;;;4.03;3.63;;;27.50;43.70;;;;;;5094095;28;20234;-72
2023/05/04 11:52:41;;;;;;;3.80;3.30;;;27.70;42.60;;;;;;5094308;28;20258;-73
2023/05/04 11:55:09;;;;;;;3.40;3.10;;;27.70;42.80;;;;;;5093913;28;20211;-73
2023/05/04 11:57:37;;;;;;;3.60;3.30;;;27.80;43.00;;;;;;5093756;28;20230;-72
2023/05/04 12:00:05;;;;;;;3.40;3.10;;;27.80;43.30;;;;;;5093883;28;20211;-72
2023/05/04 12:02:32;;;;;;;4.63;3.10;;;27.90;43.20;;;;;;5093985;28;20215;-73
2023/05/04 12:04:59;;;;;;;3.47;3.17;;;28.00;42.40;;;;;;5094084;28;20204;-72
2023/05/04 12:07:28;;;;;;;5.67;3.20;;;28.10;43.10;;;;;;5084898;28;20197;-72
2023/05/04 12:09:54;;;;;;;3.77;3.30;;;28.20;42.90;;;;;;5073473;28;20242;-72
2023/05/04 12:12:21;;;;;;;6.07;3.17;;;28.20;42.50;;;;;;5073738;28;20296;-72
2023/05/04 12:14:50;;;;;;;3.70;2.80;;;28.30;42.70;;;;;;5073332;28;20741;-73
2023/05/04 12:17:17;;;;;;;3.07;2.80;;;28.40;43.10;;;;;;5073418;28;20211;-74
2023/05/04 12:19:48;;;;;;;3.30;3.00;;;28.50;42.30;;;;;;5073545;28;20210;-72
2023/05/04 12:22:17;;;;;;;3.77;3.37;;;28.50;41.00;;;;;;5073090;28;20229;-72
2023/05/04 12:24:45;;;;;;;3.30;3.00;;;28.50;40.40;;;;;;5073398;28;20209;-71
2023/05/04 12:27:15;;;;;;;4.80;3.00;;;28.50;40.20;;;;;;5073324;28;20257;-72
2023/05/04 12:29:42;;;;;;;5.53;2.70;;;28.60;40.90;;;;;;5073168;28;20711;-72
2023/05/04 12:32:08;;;;;;;3.73;3.13;;;28.70;41.20;;;;;;5073194;28;20303;-73
2023/05/04 12:34:37;;;;;;;3.50;3.10;;;28.70;40.00;;;;;;5073072;28;20239;-72
2023/05/04 12:37:03;;;;;;;4.47;3.10;;;28.80;40.20;;;;;;5073029;28;20209;-72
2023/05/04 12:39:32;;;;;;;4.07;2.93;;;28.80;40.40;;;;;;5076872;28;20314;-73
2023/05/04 12:42:00;;;;;;;3.13;2.93;;;28.90;40.10;;;;;;5038028;28;20232;-72
2023/05/04 12:44:27;;;;;;;4.90;3.00;;;29.00;40.30;;;;;;5072714;28;20299;-72
2023/05/04 12:46:54;;;;;;;3.57;2.93;;;29.10;38.60;;;;;;5073227;28;20204;-72
2023/05/04 12:49:21;;;;;;;3.27;2.97;;;29.00;39.30;;;;;;5089465;28;20204;-72
2023/05/04 12:51:49;;;;;;;3.50;2.40;;;29.10;39.10;;;;;;5072803;28;20205;-72
2023/05/04 12:54:16;;;;;;;4.03;2.77;;;29.20;39.60;;;;;;5072777;28;20240;-71
2023/05/04 12:56:42;;;;;;;3.00;2.50;;;29.30;39.10;;;;;;5072635;28;20208;-73